createdAt,value
2019-03-31T00:01:38.313Z,29.13
2019-03-31T00:04:13.497Z,26.97
2019-03-31T00:06:53.150Z,25.40
2019-03-31T00:09:26.539Z,29.83
2019-03-31T00:11:59.340Z,27.67
2019-03-31T00:14:35.538Z,27.20
2019-03-31T00:17:08.509Z,28.23
2019-03-31T00:19:50.412Z,25.07
2019-03-31T00:22:24.350Z,29.97
2019-03-31T00:24:57.406Z,38.73
2019-03-31T00:27:28.528Z,32.63
2019-03-31T00:30:04.185Z,31.67
2019-03-31T00:32:53.833Z,25.87
2019-03-31T00:35:43.644Z,27.97
2019-03-31T00:38:35.688Z,29.60
2019-03-31T00:41:25.042Z,30.80
2019-03-31T00:44:14.999Z,29.70
2019-03-31T00:46:49.290Z,25.90
2019-03-31T00:49:21.628Z,25.87
2019-03-31T00:51:57.160Z,31.07
2019-03-31T00:54:28.467Z,25.43
2019-03-31T00:57:02.743Z,23.80
2019-03-31T00:59:42.570Z,25.07
2019-03-31T01:02:23.034Z,24.47
2019-03-31T01:05:10.410Z,34.07
2019-03-31T01:07:41.548Z,91.57
2019-03-31T01:10:14.296Z,88.47
2019-03-31T01:12:47.407Z,64.57
2019-03-31T01:15:26.187Z,39.20
2019-03-31T01:17:59.129Z,30.33
2019-03-31T01:20:32.343Z,24.10
2019-03-31T01:23:10.640Z,30.10
2019-03-31T01:25:43.485Z,25.97
2019-03-31T01:28:18.153Z,28.47
2019-03-31T01:30:49.654Z,22.40
2019-03-31T01:33:21.669Z,22.57
2019-03-31T01:35:54.019Z,23.30
2019-03-31T01:38:26.603Z,27.03
2019-03-31T01:40:58.967Z,18.30
2019-03-31T01:43:31.950Z,24.10
2019-03-31T01:46:08.900Z,22.57
2019-03-31T01:48:42.003Z,23.80
2019-03-31T01:51:14.511Z,21.97
2019-03-31T01:54:04.916Z,26.90
2019-03-31T01:56:46.311Z,19.37
2019-03-31T01:59:20.735Z,24.03
2019-03-31T02:02:04.137Z,25.63
2019-03-31T02:04:27.498Z,21.77
2019-03-31T02:07:01.945Z,25.43
2019-03-31T02:09:40.745Z,22.80
2019-03-31T02:12:13.832Z,19.13
2019-03-31T02:14:47.604Z,23.90
2019-03-31T02:17:38.967Z,21.83
2019-03-31T02:20:16.650Z,25.20
2019-03-31T02:22:49.939Z,20.10
2019-03-31T02:25:23.853Z,24.03
2019-03-31T02:27:55.780Z,20.90
2019-03-31T02:30:29.131Z,22.13
2019-03-31T02:33:02.815Z,22.10
2019-03-31T02:35:52.113Z,24.63
2019-03-31T02:38:29.320Z,21.70
2019-03-31T02:41:02.804Z,28.07
2019-03-31T02:43:38.486Z,18.67
2019-03-31T02:46:11.195Z,19.20
2019-03-31T02:49:01.203Z,20.33
2019-03-31T02:51:40.814Z,20.90
2019-03-31T02:54:14.370Z,25.00
2019-03-31T02:56:49.203Z,24.93
2019-03-31T02:59:23.742Z,21.27
2019-03-31T03:01:56.061Z,22.30
2019-03-31T03:04:27.889Z,24.30
2019-03-31T03:07:02.894Z,22.30
2019-03-31T03:09:37.113Z,17.77
2019-03-31T03:12:11.553Z,22.30
2019-03-31T03:14:45.007Z,21.70
2019-03-31T03:17:19.347Z,19.53
2019-03-31T03:19:53.982Z,19.73
2019-03-31T03:22:32.013Z,21.10
2019-03-31T03:25:05.331Z,17.30
2019-03-31T03:27:40.085Z,20.10
2019-03-31T03:30:11.273Z,25.03
2019-03-31T03:33:11.890Z,23.53
2019-03-31T03:35:21.881Z,23.77
2019-03-31T03:37:53.750Z,27.20
2019-03-31T03:40:27.097Z,27.10
2019-03-31T03:42:59.291Z,23.93
2019-03-31T03:45:34.668Z,27.40
2019-03-31T03:48:08.548Z,22.87
2019-03-31T03:50:42.212Z,26.00
2019-03-31T03:53:14.416Z,28.17
2019-03-31T03:55:48.250Z,28.43
2019-03-31T03:58:22.219Z,26.67
2019-03-31T04:00:54.935Z,28.10
2019-03-31T04:03:31.132Z,25.47
2019-03-31T04:06:03.274Z,21.00
2019-03-31T04:08:37.880Z,24.10
2019-03-31T04:11:14.269Z,25.90
2019-03-31T04:13:50.101Z,25.60
2019-03-31T04:16:38.664Z,31.00
2019-03-31T04:19:12.378Z,33.70
2019-03-31T04:21:46.053Z,27.80
2019-03-31T04:24:37.036Z,33.40
2019-03-31T04:27:10.225Z,30.87
2019-03-31T04:29:41.265Z,31.93
2019-03-31T04:32:15.169Z,30.13
2019-03-31T04:34:48.164Z,28.23
2019-03-31T04:37:21.232Z,33.10
2019-03-31T04:39:53.440Z,33.93
2019-03-31T04:42:27.402Z,28.13
2019-03-31T04:45:02.704Z,32.00
2019-03-31T04:47:38.106Z,33.83
2019-03-31T04:50:11.544Z,31.43
2019-03-31T04:52:44.851Z,28.80
2019-03-31T04:55:17.552Z,29.87
2019-03-31T04:57:51.491Z,33.87
2019-03-31T05:00:28.804Z,30.60
2019-03-31T05:03:03.384Z,30.83
2019-03-31T05:05:40.793Z,27.00
2019-03-31T05:08:28.410Z,26.17
2019-03-31T05:11:01.337Z,31.63
2019-03-31T05:13:35.043Z,28.53
2019-03-31T05:16:09.672Z,26.97
2019-03-31T05:18:41.741Z,28.97
2019-03-31T05:21:15.682Z,28.47
2019-03-31T05:23:48.730Z,29.97
2019-03-31T05:26:20.537Z,32.43
2019-03-31T05:28:54.365Z,27.83
2019-03-31T05:31:29.693Z,28.60
2019-03-31T05:34:18.106Z,29.73
2019-03-31T05:36:38.866Z,35.07
2019-03-31T05:39:27.944Z,31.30
2019-03-31T05:42:17.283Z,30.23
2019-03-31T05:45:07.005Z,29.60
2019-03-31T05:47:40.622Z,32.50
2019-03-31T05:50:11.660Z,30.97
2019-03-31T05:52:46.457Z,32.00
2019-03-31T05:55:18.981Z,31.27
2019-03-31T05:57:51.059Z,32.70
2019-03-31T06:00:50.229Z,34.00
2019-03-31T06:03:29.539Z,30.00
2019-03-31T06:06:04.788Z,33.10
2019-03-31T06:08:37.637Z,32.73
2019-03-31T06:11:27.462Z,36.33
2019-03-31T06:14:00.915Z,36.90
2019-03-31T06:16:36.348Z,31.50
2019-03-31T06:19:08.843Z,29.87
2019-03-31T06:21:41.003Z,31.10
2019-03-31T06:24:15.856Z,32.13
2019-03-31T06:26:48.203Z,27.83
2019-03-31T06:29:20.843Z,31.23
2019-03-31T06:32:10.600Z,33.53
2019-03-31T06:34:47.732Z,34.83
2019-03-31T06:37:21.011Z,33.87
2019-03-31T06:39:53.558Z,28.77
2019-03-31T06:42:36.923Z,29.10
2019-03-31T06:45:08.345Z,29.67
2019-03-31T06:47:41.169Z,28.23
2019-03-31T06:50:15.139Z,31.37
2019-03-31T06:53:02.839Z,35.30
2019-03-31T06:55:36.802Z,30.57
2019-03-31T06:58:08.200Z,29.63
2019-03-31T07:01:00.849Z,30.33
2019-03-31T07:03:34.009Z,27.23
2019-03-31T07:06:07.230Z,25.93
2019-03-31T07:08:45.265Z,27.87
2019-03-31T07:11:23.064Z,31.50
2019-03-31T07:13:57.765Z,25.73
2019-03-31T07:16:29.050Z,28.80
2019-03-31T07:19:03.833Z,29.57
2019-03-31T07:21:38.128Z,26.93
2019-03-31T07:24:12.053Z,28.80
2019-03-31T07:26:44.273Z,28.70
2019-03-31T07:29:17.837Z,29.67
2019-03-31T07:31:51.194Z,29.83
2019-03-31T07:34:24.900Z,26.93
2019-03-31T07:36:57.447Z,27.70
2019-03-31T07:39:29.506Z,34.53
2019-03-31T07:42:04.284Z,28.00
2019-03-31T07:44:39.481Z,29.47
2019-03-31T07:47:13.056Z,27.03
2019-03-31T07:49:45.362Z,27.60
2019-03-31T07:52:18.384Z,29.10
2019-03-31T07:54:50.521Z,29.00
2019-03-31T07:57:23.547Z,27.43
2019-03-31T07:59:56.945Z,25.00
2019-03-31T08:02:34.552Z,24.70
2019-03-31T08:05:09.379Z,30.87
2019-03-31T08:07:42.145Z,29.67
2019-03-31T08:10:22.641Z,25.73
2019-03-31T08:12:53.835Z,28.07
2019-03-31T08:15:26.605Z,29.37
2019-03-31T08:17:58.586Z,26.33
2019-03-31T08:20:29.640Z,22.60
2019-03-31T08:23:02.745Z,30.03
2019-03-31T08:25:38.548Z,24.63
2019-03-31T08:28:10.459Z,21.07
2019-03-31T08:31:00.345Z,22.67
2019-03-31T08:33:44.728Z,22.40
2019-03-31T08:36:19.402Z,24.30
2019-03-31T08:38:53.400Z,22.63
2019-03-31T08:41:24.524Z,22.47
2019-03-31T08:43:57.737Z,22.07
2019-03-31T08:46:28.927Z,22.97
2019-03-31T08:49:18.312Z,27.30
2019-03-31T08:51:59.760Z,22.03
2019-03-31T08:54:36.116Z,18.50
2019-03-31T08:57:25.787Z,19.00
2019-03-31T09:00:00.587Z,23.10
2019-03-31T09:02:38.412Z,24.27
2019-03-31T09:05:12.912Z,21.70
2019-03-31T09:07:47.504Z,22.27
2019-03-31T09:10:19.708Z,21.20
2019-03-31T09:12:50.899Z,22.90
2019-03-31T09:15:26.465Z,18.43
2019-03-31T09:17:59.698Z,21.50
2019-03-31T09:20:32.717Z,19.03
2019-03-31T09:23:06.830Z,21.27
2019-03-31T09:25:38.809Z,20.43
2019-03-31T09:28:11.777Z,22.60
2019-03-31T09:30:45.034Z,21.67
2019-03-31T09:33:20.045Z,22.43
2019-03-31T09:35:53.752Z,20.83
2019-03-31T09:38:26.981Z,19.30
2019-03-31T09:41:05.658Z,21.43
2019-03-31T09:43:39.793Z,18.70
2019-03-31T09:46:12.956Z,19.10
2019-03-31T09:48:46.073Z,18.23
2019-03-31T09:51:25.944Z,17.57
2019-03-31T09:53:59.965Z,19.33
2019-03-31T09:56:36.191Z,20.93
2019-03-31T09:59:08.867Z,24.10
2019-03-31T10:01:58.732Z,17.50
2019-03-31T10:04:33.014Z,20.00
2019-03-31T10:07:07.657Z,21.43
2019-03-31T10:09:39.927Z,19.07
2019-03-31T10:12:21.126Z,17.03
2019-03-31T10:14:54.374Z,17.40
2019-03-31T10:17:28.712Z,19.73
2019-03-31T10:20:01.103Z,17.97
2019-03-31T10:22:39.931Z,16.57
2019-03-31T10:25:13.448Z,18.13
2019-03-31T10:27:46.302Z,16.70
2019-03-31T10:30:22.629Z,18.57
2019-03-31T10:32:56.667Z,21.47
2019-03-31T10:35:29.349Z,15.20
2019-03-31T10:38:08.229Z,16.70
2019-03-31T10:40:45.055Z,19.70
2019-03-31T10:43:16.294Z,28.70
2019-03-31T10:45:50.304Z,63.60
2019-03-31T10:48:27.864Z,19.83
2019-03-31T10:51:20.363Z,69.50
2019-03-31T10:53:55.960Z,22.70
2019-03-31T10:56:27.198Z,65.93
2019-03-31T10:59:08.711Z,16.83
2019-03-31T11:02:00.556Z,26.93
2019-03-31T11:04:51.628Z,33.67
2019-03-31T11:07:24.958Z,14.17
2019-03-31T11:09:57.465Z,16.30
2019-03-31T11:12:36.536Z,17.03
2019-03-31T11:15:13.218Z,18.80
2019-03-31T11:17:45.347Z,20.27
2019-03-31T11:20:20.811Z,33.13
2019-03-31T11:23:03.418Z,24.47
2019-03-31T11:25:37.560Z,23.70
2019-03-31T11:28:09.382Z,24.03
2019-03-31T11:30:45.230Z,18.43
2019-03-31T11:33:16.479Z,20.10
2019-03-31T11:35:51.070Z,27.90
2019-03-31T11:38:40.946Z,33.30
2019-03-31T11:41:12.235Z,21.47
2019-03-31T11:43:46.014Z,29.40
2019-03-31T11:46:19.465Z,30.17
2019-03-31T11:48:52.477Z,29.80
2019-03-31T11:51:26.630Z,21.27
2019-03-31T11:54:00.758Z,41.33
2019-03-31T11:56:38.072Z,15.00
2019-03-31T11:59:20.709Z,22.00
2019-03-31T12:02:00.096Z,20.60
2019-03-31T12:04:37.814Z,17.67
2019-03-31T12:07:10.043Z,22.30
2019-03-31T12:09:42.387Z,38.53
2019-03-31T12:12:16.338Z,42.10
2019-03-31T12:14:59.775Z,39.80
2019-03-31T12:17:25.556Z,28.63
2019-03-31T12:20:02.803Z,34.33
2019-03-31T12:22:37.847Z,24.73
2019-03-31T12:25:19.986Z,17.00
2019-03-31T12:27:51.283Z,29.93
2019-03-31T12:30:29.761Z,25.40
2019-03-31T12:33:04.359Z,19.00
2019-03-31T12:35:37.742Z,40.37
2019-03-31T12:38:10.750Z,31.13
2019-03-31T12:40:51.771Z,51.33
2019-03-31T12:43:24.614Z,51.97
2019-03-31T12:46:00.051Z,119.67
2019-03-31T12:48:34.013Z,86.50
2019-03-31T12:51:05.969Z,35.80
2019-03-31T12:53:39.830Z,17.80
2019-03-31T12:56:13.671Z,52.40
2019-03-31T12:58:50.665Z,47.23
2019-03-31T13:01:25.318Z,16.67
2019-03-31T13:03:58.508Z,48.30
2019-03-31T13:06:29.699Z,23.13
2019-03-31T13:09:23.195Z,18.60
2019-03-31T13:11:55.876Z,14.60
2019-03-31T13:14:28.961Z,18.70
2019-03-31T13:17:03.387Z,17.60
2019-03-31T13:19:39.994Z,32.77
2019-03-31T13:22:31.539Z,36.63
2019-03-31T13:25:04.030Z,27.40
2019-03-31T13:27:37.095Z,16.63
2019-03-31T13:30:09.275Z,22.43
2019-03-31T13:32:43.894Z,19.30
2019-03-31T13:35:16.974Z,39.50
2019-03-31T13:37:52.722Z,16.50
2019-03-31T13:40:29.139Z,17.00
2019-03-31T13:43:04.741Z,36.07
2019-03-31T13:45:36.022Z,42.30
2019-03-31T13:48:12.920Z,43.57
2019-03-31T13:50:47.321Z,48.10
2019-03-31T13:53:22.806Z,42.10
2019-03-31T13:55:55.280Z,28.97
2019-03-31T13:58:29.149Z,12.90
2019-03-31T14:01:05.721Z,16.43
2019-03-31T14:03:47.889Z,15.37
2019-03-31T14:06:21.394Z,22.17
2019-03-31T14:08:59.839Z,12.77
2019-03-31T14:11:32.928Z,21.20
2019-03-31T14:14:05.982Z,16.87
2019-03-31T14:16:39.032Z,22.97
2019-03-31T14:19:13.330Z,11.70
2019-03-31T14:21:44.941Z,22.57
2019-03-31T14:24:18.057Z,21.63
2019-03-31T14:26:53.057Z,10.60
2019-03-31T14:29:27.183Z,14.30
2019-03-31T14:32:00.246Z,16.97
2019-03-31T14:34:37.553Z,18.70
2019-03-31T14:37:13.030Z,11.30
2019-03-31T14:39:57.064Z,12.97
2019-03-31T14:42:29.698Z,17.20
2019-03-31T14:45:04.888Z,29.00
2019-03-31T14:47:36.539Z,18.73
2019-03-31T14:50:14.200Z,13.33
2019-03-31T14:53:03.965Z,13.10
2019-03-31T14:55:53.720Z,18.10
2019-03-31T14:58:42.715Z,11.43
2019-03-31T15:01:15.981Z,14.63
2019-03-31T15:03:49.943Z,16.83
2019-03-31T15:06:23.438Z,13.00
2019-03-31T15:08:59.116Z,14.50
2019-03-31T15:11:30.658Z,11.27
2019-03-31T15:14:03.409Z,11.90
2019-03-31T15:16:54.763Z,9.20
2019-03-31T15:19:27.328Z,9.93
2019-03-31T15:22:17.194Z,10.60
2019-03-31T15:24:49.671Z,9.70
2019-03-31T15:27:25.138Z,9.97
2019-03-31T15:30:14.874Z,11.53
2019-03-31T15:32:52.639Z,9.63
2019-03-31T15:35:25.233Z,9.87
2019-03-31T15:37:57.482Z,9.93
2019-03-31T15:40:29.041Z,9.17
2019-03-31T15:43:02.149Z,8.60
2019-03-31T15:45:42.380Z,13.37
2019-03-31T15:48:18.297Z,9.03
2019-03-31T15:51:10.423Z,21.53
2019-03-31T15:54:01.408Z,13.77
2019-03-31T15:56:36.259Z,10.17
2019-03-31T15:59:09.699Z,9.67
2019-03-31T16:01:49.178Z,10.27
2019-03-31T16:04:22.720Z,10.47
2019-03-31T16:06:55.481Z,8.37
2019-03-31T16:09:31.538Z,8.43
2019-03-31T16:12:20.218Z,11.27
2019-03-31T16:14:51.072Z,10.77
2019-03-31T16:17:32.622Z,9.67
2019-03-31T16:20:07.795Z,9.13
2019-03-31T16:22:40.082Z,9.67
2019-03-31T16:25:22.249Z,8.47
2019-03-31T16:27:54.190Z,9.60
2019-03-31T16:30:31.157Z,9.20
2019-03-31T16:33:07.024Z,11.40
2019-03-31T16:35:40.780Z,11.63
2019-03-31T16:38:13.786Z,9.97
2019-03-31T16:40:46.188Z,9.40
2019-03-31T16:43:18.221Z,8.83
2019-03-31T16:46:07.175Z,10.93
2019-03-31T16:48:45.062Z,11.03
2019-03-31T16:51:17.205Z,11.40
2019-03-31T16:53:51.151Z,12.10
2019-03-31T16:56:24.494Z,12.70
2019-03-31T16:58:59.160Z,11.90
2019-03-31T17:01:32.659Z,15.33
2019-03-31T17:04:08.055Z,12.87
2019-03-31T17:06:41.078Z,16.07
2019-03-31T17:09:15.011Z,12.07
2019-03-31T17:11:47.071Z,11.77
2019-03-31T17:14:20.647Z,11.17
2019-03-31T17:16:54.336Z,17.43
2019-03-31T17:19:43.643Z,12.30
2019-03-31T17:22:30.100Z,15.60
2019-03-31T17:25:05.991Z,13.40
2019-03-31T17:27:54.814Z,13.27
2019-03-31T17:30:40.027Z,13.00
2019-03-31T17:33:13.632Z,13.30
2019-03-31T17:35:45.186Z,15.97
2019-03-31T17:38:22.509Z,14.40
2019-03-31T17:40:53.504Z,14.73
2019-03-31T17:43:24.568Z,15.07
2019-03-31T17:46:02.970Z,14.80
2019-03-31T17:48:48.001Z,14.30
2019-03-31T17:51:44.241Z,12.97
2019-03-31T17:54:15.103Z,15.17
2019-03-31T17:56:48.863Z,16.83
2019-03-31T17:59:21.628Z,12.77
2019-03-31T18:01:53.670Z,13.60
2019-03-31T18:04:25.462Z,14.17
2019-03-31T18:06:56.352Z,25.40
2019-03-31T18:09:29.073Z,13.77
2019-03-31T18:12:17.562Z,13.17
2019-03-31T18:15:10.253Z,12.23
2019-03-31T18:17:45.436Z,14.73
2019-03-31T18:20:16.449Z,11.40
2019-03-31T18:22:47.696Z,10.70
2019-03-31T18:25:21.068Z,9.57
2019-03-31T18:28:06.394Z,18.13
2019-03-31T18:30:38.564Z,13.40
2019-03-31T18:33:11.282Z,13.00
2019-03-31T18:35:41.741Z,13.37
2019-03-31T18:38:13.207Z,12.03
2019-03-31T18:40:48.469Z,19.10
2019-03-31T18:43:21.016Z,12.97
2019-03-31T18:45:54.374Z,16.20
2019-03-31T18:48:29.042Z,16.60
2019-03-31T18:51:02.310Z,14.10
2019-03-31T18:53:59.045Z,14.40
2019-03-31T18:56:55.271Z,15.27
2019-03-31T19:00:10.557Z,15.43
2019-03-31T19:03:15.653Z,13.73
2019-03-31T19:06:08.773Z,14.10
2019-03-31T19:09:09.008Z,19.50
2019-03-31T19:12:14.367Z,14.93
2019-03-31T19:15:15.084Z,16.07
2019-03-31T19:18:05.185Z,16.20
2019-03-31T19:21:19.045Z,19.00
2019-03-31T19:24:17.840Z,21.40
2019-03-31T19:27:12.331Z,19.73
2019-03-31T19:30:17.792Z,18.70
2019-03-31T19:33:05.461Z,15.53
2019-03-31T19:36:04.999Z,18.10
2019-03-31T19:38:56.108Z,16.23
2019-03-31T19:41:53.629Z,15.10
2019-03-31T19:44:47.999Z,15.50
2019-03-31T19:47:46.568Z,16.13
2019-03-31T19:50:38.792Z,16.60
2019-03-31T19:53:36.441Z,16.67
2019-03-31T19:56:29.191Z,16.03
2019-03-31T19:59:32.472Z,16.23
2019-03-31T20:02:44.086Z,16.47
2019-03-31T20:05:47.836Z,14.90
2019-03-31T20:08:37.261Z,18.60
2019-03-31T20:11:39.395Z,16.47
2019-03-31T20:14:30.054Z,17.90
2019-03-31T20:17:15.049Z,14.20
2019-03-31T20:20:23.337Z,19.67
2019-03-31T20:23:02.857Z,15.93
2019-03-31T20:26:03.641Z,18.37
2019-03-31T20:29:02.825Z,17.93
2019-03-31T20:32:00.702Z,20.00
2019-03-31T20:34:46.893Z,16.30
2019-03-31T20:37:33.732Z,16.30
2019-03-31T20:40:44.501Z,19.90
2019-03-31T20:43:39.082Z,15.80
2019-03-31T20:46:27.542Z,15.47
2019-03-31T20:48:59.850Z,17.23
2019-03-31T20:51:33.140Z,17.33
2019-03-31T20:54:04.544Z,22.30
2019-03-31T20:56:39.564Z,19.60
2019-03-31T20:59:11.635Z,20.73
2019-03-31T21:01:46.254Z,21.60
2019-03-31T21:04:18.516Z,21.10
2019-03-31T21:06:52.022Z,23.33
2019-03-31T21:09:25.092Z,20.80
2019-03-31T21:11:57.720Z,21.70
2019-03-31T21:14:31.916Z,24.13
2019-03-31T21:17:10.672Z,23.70
2019-03-31T21:20:02.300Z,22.23
2019-03-31T21:22:52.379Z,23.40
2019-03-31T21:25:42.423Z,26.27
2019-03-31T21:28:38.948Z,25.30
2019-03-31T21:31:11.143Z,29.60
2019-03-31T21:33:46.122Z,26.30
2019-03-31T21:36:23.265Z,25.17
2019-03-31T21:38:57.640Z,31.73
2019-03-31T21:41:33.602Z,34.20
2019-03-31T21:44:19.593Z,31.33
2019-03-31T21:46:51.867Z,27.87
2019-03-31T21:49:23.843Z,28.10
2019-03-31T21:51:55.069Z,32.10
2019-03-31T21:54:31.637Z,30.53
2019-03-31T21:57:06.904Z,38.87
2019-03-31T21:59:56.254Z,35.13
2019-03-31T22:02:45.321Z,30.33
2019-03-31T22:05:26.127Z,33.03
2019-03-31T22:07:58.843Z,31.07
2019-03-31T22:10:31.631Z,27.37
2019-03-31T22:13:03.612Z,31.87
2019-03-31T22:15:53.282Z,32.43
2019-03-31T22:18:30.288Z,36.23
2019-03-31T22:21:04.237Z,32.77
2019-03-31T22:23:38.868Z,33.60
2019-03-31T22:26:11.629Z,30.60
2019-03-31T22:28:45.675Z,32.03
2019-03-31T22:31:37.724Z,34.13
2019-03-31T22:34:09.187Z,32.13
2019-03-31T22:36:58.451Z,35.03
2019-03-31T22:39:34.655Z,34.00
2019-03-31T22:42:09.093Z,33.87
2019-03-31T22:44:42.173Z,37.00
2019-03-31T22:47:31.249Z,33.90
2019-03-31T22:50:04.795Z,36.90
2019-03-31T22:52:37.014Z,35.60
2019-03-31T22:55:09.811Z,33.53
2019-03-31T22:57:53.644Z,35.97
2019-03-31T23:00:29.957Z,29.70
2019-03-31T23:03:04.058Z,36.30
2019-03-31T23:05:48.001Z,30.10
2019-03-31T23:08:21.818Z,32.07
2019-03-31T23:10:55.585Z,33.40
2019-03-31T23:13:29.704Z,36.40
2019-03-31T23:16:04.531Z,40.57
2019-03-31T23:18:39.853Z,62.53
2019-03-31T23:21:17.711Z,34.33
2019-03-31T23:23:51.790Z,35.13
2019-03-31T23:26:26.205Z,35.10
2019-03-31T23:28:56.882Z,33.60
2019-03-31T23:31:29.961Z,33.30
2019-03-31T23:34:04.562Z,34.33
2019-03-31T23:36:49.065Z,34.50
2019-03-31T23:39:22.770Z,34.20
2019-03-31T23:42:05.801Z,32.43
2019-03-31T23:44:41.002Z,34.77
2019-03-31T23:47:14.670Z,30.87
2019-03-31T23:49:48.831Z,32.83
2019-03-31T23:52:22.154Z,28.53
2019-03-31T23:55:06.502Z,33.33
2019-03-31T23:57:40.347Z,37.83
